Pitesti, Romania
Current Conditions -  °F | °C
As of 11:00 AM on Thursday 27 Nov 2014 (Local Time) from LRCV Reporting Station
Overcast Overcast  
Wind Chill: 21°   Ceiling: 2600
Heat Index: 30°   Visibility: 6mi
Dew Point: 21°   Wind: 12mph
Humidity: 69%   Direction: 110°ESE
Pressure: 30.27"   Gusts: NA
Location:  44.86°N, 24.87°E
Report Text: LRCV 270800Z 11010KT 9999 OVC026 M01/M06 Q1025
Loading
Personal Weather Stations






























Interactive Weather Map New forecast layout! Learn more

10-Day Weather Forecast

Advertisements
Track Severe Weather on mobile